FCIRICHMOND EXEC/CHESTERFIELD COUNTY
METARs for airports near FCI, sorted by distance:
N 0 nm 236' KFCI 142256Z 20004KT 10SM CLR 33/23 A2999
NE 11 nm 167' KRIC 142254Z 20007KT 10SM FEW060 34/22 A2998
S 13 nm 192' KPTB 142315Z 00000KT 10SM CLR 32/25 A3000
N 18 nm 206' KOFP 142254Z 22005KT 10SM CLR 35/21 A2998
SW 28 nm 437' KBKT 142255Z 19004KT 10SM CLR 33/23 A3000
SE 35 nm 111' KAKQ 142254Z 17006KT 10SM CLR 31/24 A2999
E 36 nm 20' KFYJ 142315Z 00000KT 7SM CLR 32/25 A2999
S 40 nm 328' KLVL 142315Z 00000KT 10SM CLR 33/27 A3001
NE 40 nm 135' KXSA 142315Z 16003KT 10SM CLR 33/25 A2998
NW 41 nm 493' KLKU 142315Z 17004KT 10SM CLR 31/22 A2999
S 43 nm 126' KEMV 142315Z 11005KT 10SM CLR 31/25 A3002
W 43 nm 415' KFVX 142315Z 20004KT 10SM CLR 31/22 A2998
E 46 nm 11' KFAF 130055Z 17007KT 5SM RA OVC035 23/22 A3018
SW 50 nm 441' KAVC 142315Z 00000KT 10SM CLR 33/27 A3007
N 51 nm 85' KEZF 142315Z 00000KT 10SM CLR 33/22 A2994
SE 51 nm 40' KFKN 142315Z 16006KT 10SM CLR 28/21 A3002
E 51 nm 42' KPHF 142254Z 18013KT 10SM CLR 33/24 A2999
NW 54 nm 454' KGVE 142315Z 20003KT 10SM SCT095 32/23 A2997
NW 56 nm 464' KOMH 142315Z 00000KT 10SM CLR 32/21 A2998
E 58 nm 8' KLFI 142255Z 14007KT 10SM CLR 33/24 A2999
N 59 nm 219' KRMN 142315Z 20005KT 10SM CLR 34/17 A2994
SW 59 nm 503' KCXE 142315Z 00000KT 10SM BKN120 31/25 A3001
SE 62 nm 70' KSFQ 142315Z 20006KT 10SM CLR 27/21 A3002
NW 62 nm 640' KCHO 142253Z 16003KT 10SM SCT100 BKN110 34/18 A2997
SE 63 nm 28' KPVG 142256Z 10SM CLR 29/23 A3002
S 64 nm 144' KIXA 142310Z 20006KT 10SM CLR 30/24 A3001
SE 65 nm 14' KNGU 142259Z 21007KT 10SM FEW041 FEW150 SCT300 32/22 A3001
N 66 nm 10' KNYG 142256Z 5SM CLR 34/21 A2995
S 68 nm 66' KASJ 142305Z 15007KT 10SM CLR 26/26 A3002
N 69 nm 315' KCJR 142315Z 17003KT 10SM CLR 34/18 A2996
SE 70 nm 26' KORF 142251Z 22017KT 10SM CLR 32/23 A2999
N 71 nm 336' KHWY 142315Z 16004KT 10SM CLR 33/18 A2996
SE 72 nm 18' KCPK 142315Z 19007KT 10SM CLR 27/21 A3001
NE 74 nm 38' KNHK 142252Z 14007KT 10SM CLR 32/25 A2996
E 76 nm 5' KTGI 142315Z 15009KT 10SM CLR 31/26 A2999
N 78 nm 192' KHEF 142256Z 17007KT 10SM CLR 33/22 A2995
SW 79 nm 526' KHNZ 142255Z 00000KT 10SM CLR 31/22 A3002
SE 79 nm 21' KNTU 142256Z 17009G19KT 10SM FEW040 SCT250 32/27 A3000
W 80 nm 938' KLYH 142254Z 22006KT 10SM SCT090 34/17 A3002
N 80 nm 73' KDAA 142255Z 15005KT 10SM CLR 35/19 A2992
NW 82 nm 1201' KSHD 142315Z 25007KT 10SM CLR 34/16 A3003
E 85 nm 47' KMFV 142255Z 16008KT 10SM CLR A3000
S 88 nm 52' KETC 142300Z 24005KT 7SM HZ CLR 32/21 A3002
NW 88 nm 902' KLUA 142315Z 00000KT 10SM 34/17 A2998
NW 89 nm 1165' KVBW 142315Z 29006KT 10SM SCT095 33/16 A3000
N 89 nm 14' KDCA 142252Z 21009KT 10SM FEW080 FEW250 36/16 A2993
N 89 nm 279' KADW 142255Z 13007KT 10SM CLR 32/23 A2993
SW 91 nm 368' KLHZ 142305Z 17006KT 10SM SCT070 30/22 A3004
N 92 nm 312' KIAD 142252Z 20008KT 10SM FEW090 FEW250 34/18 A2994
S 94 nm 74' KMCZ 142305Z 09009KT 10SM SCT055 28/22 A3005
TAFs for airports near FCI, sorted by distance:
NE 11 nm 167' KRIC KRIC 141722Z 1418/1518 19008KT P6SM SCT060
  FM142300 22005KT P6SM SKC
E 46 nm 11' KFAF TAF KFAF 121800Z 1218/1324 18009KT 6000 -SHRA BR VCTS BKN025CB BKN040 OVC060 QNH3006INS
  TEMPO 1218/1223 VRB12G18KT 8000 -TSRA SCT015CB BKN020 OVC035
  BECMG 1223/1224 16006KT 8000 -SHRA BR BKN022 OVC034 QNH3007INS TX28/1318Z TN24/1308Z
E 51 nm 42' KPHF KPHF 141722Z 1418/1518 22007KT P6SM SCT060
  FM142300 22005KT P6SM SKC
E 58 nm 8' KLFI TAF
  AMD KLFI 141405Z 1414/1517 VRB06KT 9999 FEW095 QNH3006INS
  BECMG 1416/1417 VRB06KT 9999 NSW FEW085 SCT120 QNH2992INS TX33/1417Z TN31/1414Z LAST NO
  AMDS AFT 1414 NEXT 1509
NW 62 nm 640' KCHO TAF
  AMD KCHO 142008Z 1420/1518 16008G16KT P6SM FEW250
  FM150000 00000KT P6SM FEW250
  FM150500 18005KT P6SM FEW250
  FM151600 26003KT P6SM FEW200
SE 65 nm 14' KNGU TAF KNGU 1423/1523 17009KT 9999 SCT030 OVC050 QNH2994INS
  BECMG 1504/1506 21006KT 9999 FEW040 BKN055 OVC085 QNH2993INS
  BECMG 1510/1512 VRB06KT 9000 BR FEW050 SCT065 BKN095 QNH2987INS TX34/1521Z TN26/1508Z FN00199
N 66 nm 10' KNYG TAF KNYG 1321/1421 VRB06KT 9999 SKC QNH3005INS
  FM140600 VRB06KT 9999 SCT200 QNH2995INS LAST NO
  AMDS AFT 1321 NEXT 1509 AUTOMATED SENSOR METWATCH 1321 TIL 1511 T32/1321Z T22/1411Z
SE 70 nm 26' KORF KORF 141722Z 1418/1518 06006KT P6SM SCT060
  FM142100 15008KT P6SM FEW060
  FM150300 22009KT P6SM SKC
NE 74 nm 38' KNHK TAF KNHK 1423/1523 17010KT 9999 VCTS FEW030CB SCT060 BKN100 QNH2993INS
  BECMG 1504/1506 20008KT 9999 NSW FEW050 SCT070 BKN090 QNH2989INS
  BECMG 1510/1512 19007KT 9999 FEW120 QNH2987INS AUTOMATED SENSOR METWATCH 1423 TIL 1508 TX34/1521Z TN27/1509Z FN00277
SE 79 nm 21' KNTU TAF KNTU 1423/1523 17010G15KT 9999 FEW025 SCT040 BKN055 QNH2997INS
  BECMG 1504/1506 21006KT 9999 FEW040 SCT055 BKN085 QNH2995INS
  BECMG 1510/1512 21006KT 9000 BR FEW050 FEW065 SCT095 QNH2990INS TX32/1517Z TN25/1508Z FN00199
W 80 nm 938' KLYH TAF KLYH 141720Z 1418/1518 26005KT P6SM SCT060
  FM142300 VRB02KT P6SM FEW250
N 80 nm 73' KDAA TAF KDAA 121200Z 1212/1318 VRB05KT 9999 VCSH SCT030 BKN060 OVC100 QNH2996INS
  BECMG 1212/1213 03006KT 9000 -SHRA FEW015 BKN030 OVC070 QNH3000INS
  BECMG 1213/1214 04007KT 8000 -SHRA VCTS SCT015CB OVC030 QNH3011INS
  TEMPO 1214/1301 VRB12G20KT 4800 TSRA BR SCT008 OVC015CB
  BECMG 1302/1303 VRB06KT 9000 -RA OVC010 QNH3010INS
  BECMG 1306/1307 VRB05KT 4800 -RA BR OVC008 QNH3011INS
  BECMG 1312/1313 16007KT 8000 -SHRA VCTS SCT009 BKN015CB OVC030 QNH3012INS TX27/1220Z TN24/1310Z
N 89 nm 14' KDCA KDCA 142102Z 1421/1524 21008G16KT P6SM VCTS SCT060CB SCT250
  FM142200 08008G16KT P6SM FEW200
  FM150500 17005KT P6SM FEW200
  FM151600 26005KT P6SM FEW200
N 89 nm 279' KADW TAF
  AMD KADW 141910Z 1419/1523 27012KT 9999 VCTS SCT050CB QNH2997INS
  TEMPO 1419/1421 29012G18KT 8000 -TSRA BKN050CB
  BECMG 1420/1421 22006KT 9999 NSW SCT050 QNH2994INS
  BECMG 1500/1501 17006KT 9999 FEW070 QNH2992INS
  BECMG 1506/1507 26006KT 9999 SCT060 SCT250 QNH2986INS
  BECMG 1518/1519 23012KT 9999 -SHRA VCTS BKN040CB QNH2983INS TX38/1419Z TN23/1509Z
N 92 nm 312' KIAD KIAD 142102Z 1421/1524 23009KT P6SM FEW250
  FM142300 21005KT P6SM FEW250
  FM150300 18004KT P6SM FEW250
  FM151600 26005KT P6SM FEW250

Shortcut to this page: http://wxbay.com.

Data may contain errors.